createdAt,value
2019-02-24T00:01:47.464Z,10.77
2019-02-24T00:07:07.189Z,11.63
2019-02-24T00:09:57.024Z,13.50
2019-02-24T00:12:43.015Z,13.03
2019-02-24T00:15:38.543Z,13.50
2019-02-24T00:18:19.923Z,16.93
2019-02-24T00:21:14.687Z,13.53
2019-02-24T00:23:42.764Z,12.57
2019-02-24T00:26:20.636Z,16.17
2019-02-24T00:32:30.088Z,14.50
2019-02-24T00:38:02.310Z,17.40
2019-02-24T00:40:36.288Z,13.67
2019-02-24T00:43:04.264Z,14.27
2019-02-24T00:46:24.808Z,17.13
2019-02-24T00:49:26.782Z,14.10
2019-02-24T00:51:50.355Z,15.33
2019-02-24T00:55:23.722Z,19.17
2019-02-24T00:58:04.556Z,16.30
2019-02-24T01:00:41.771Z,16.93
2019-02-24T01:03:09.797Z,17.53
2019-02-24T01:05:38.638Z,17.90
2019-02-24T01:08:08.623Z,18.20
2019-02-24T01:10:36.207Z,17.30
2019-02-24T01:13:06.857Z,16.77
2019-02-24T01:16:04.657Z,17.20
2019-02-24T01:18:34.011Z,15.40
2019-02-24T01:21:01.386Z,17.50
2019-02-24T01:23:31.988Z,17.13
2019-02-24T01:25:59.250Z,19.73
2019-02-24T01:28:26.612Z,17.63
2019-02-24T01:30:53.990Z,17.43
2019-02-24T01:33:21.545Z,18.43
2019-02-24T01:35:51.663Z,17.13
2019-02-24T01:38:19.700Z,17.33
2019-02-24T01:41:05.842Z,18.63
2019-02-24T01:43:38.463Z,19.40
2019-02-24T01:46:16.441Z,18.83
2019-02-24T01:48:44.338Z,19.73
2019-02-24T01:51:14.240Z,21.17
2019-02-24T02:03:03.080Z,18.60
2019-02-24T02:06:18.307Z,17.97
2019-02-24T02:09:58.541Z,18.67
2019-02-24T02:52:02.921Z,27.10
2019-02-24T03:09:48.584Z,28.90
2019-02-24T03:12:20.040Z,26.37
2019-02-24T03:15:51.456Z,26.10
2019-02-24T03:18:34.575Z,28.73
2019-02-24T03:39:06.770Z,25.23
2019-02-24T03:46:53.881Z,29.83
2019-02-24T03:49:31.102Z,28.57
2019-02-24T03:52:22.693Z,24.83
2019-02-24T03:58:41.959Z,24.63
2019-02-24T04:05:00.895Z,21.43
2019-02-24T04:05:22.641Z,24.43
2019-02-24T04:14:38.132Z,33.10
2019-02-24T04:17:06.414Z,31.43
2019-02-24T04:22:53.044Z,31.40
2019-02-24T04:26:11.108Z,31.60
2019-02-24T04:29:04.714Z,31.73
2019-02-24T04:40:56.747Z,32.93
2019-02-24T04:47:26.330Z,31.07
2019-02-24T04:53:26.515Z,30.23
2019-02-24T04:56:50.415Z,36.67
2019-02-24T05:02:56.639Z,37.23
2019-02-24T05:05:41.376Z,33.87
2019-02-24T05:08:17.728Z,26.50
2019-02-24T05:10:51.335Z,30.03
2019-02-24T05:13:21.639Z,29.93
2019-02-24T05:16:01.292Z,27.30
2019-02-24T05:18:34.605Z,20.60
2019-02-24T05:23:59.734Z,25.50
2019-02-24T05:32:50.954Z,26.50
2019-02-24T05:35:37.490Z,29.87
2019-02-24T05:38:50.908Z,34.13
2019-02-24T05:45:45.538Z,23.33
2019-02-24T05:48:15.399Z,27.47
2019-02-24T05:54:20.208Z,32.77
2019-02-24T05:57:22.903Z,30.60
2019-02-24T05:59:28.712Z,28.30
2019-02-24T05:59:55.493Z,28.03
2019-02-24T06:03:04.868Z,35.17
2019-02-24T06:08:52.107Z,37.83
2019-02-24T06:11:37.282Z,37.40
2019-02-24T06:17:01.087Z,35.17
2019-02-24T06:19:49.876Z,37.57
2019-02-24T06:22:17.655Z,35.57
2019-02-24T06:24:46.620Z,39.30
2019-02-24T06:27:15.880Z,43.53
2019-02-24T06:29:52.134Z,35.77
2019-02-24T06:32:31.750Z,34.97
2019-02-24T06:35:09.989Z,32.03
2019-02-24T06:37:48.790Z,29.47
2019-02-24T06:40:46.457Z,32.33
2019-02-24T06:46:39.569Z,28.30
2019-02-24T06:49:38.964Z,37.57
2019-02-24T07:01:09.643Z,42.83
2019-02-24T07:03:52.224Z,41.70
2019-02-24T07:06:44.951Z,31.47
2019-02-24T07:09:51.878Z,30.40
2019-02-24T07:12:42.027Z,35.63
2019-02-24T07:19:04.617Z,37.87
2019-02-24T07:21:35.152Z,33.87
2019-02-24T07:24:40.391Z,36.83
2019-02-24T07:28:17.513Z,37.43
2019-02-24T07:31:08.539Z,33.60
2019-02-24T07:33:38.674Z,33.47
2019-02-24T07:36:06.853Z,32.60
2019-02-24T07:39:12.078Z,34.23
2019-02-24T07:41:59.937Z,32.07
2019-02-24T07:44:29.512Z,31.40
2019-02-24T07:47:16.826Z,29.30
2019-02-24T07:49:53.849Z,30.13
2019-02-24T07:52:23.535Z,27.80
2019-02-24T08:04:42.163Z,30.70
2019-02-24T08:11:11.217Z,29.60
2019-02-24T08:13:41.146Z,28.17
2019-02-24T08:16:09.607Z,29.70
2019-02-24T08:31:01.553Z,27.10
2019-02-24T08:40:38.824Z,22.53
2019-02-24T08:46:39.166Z,27.53
2019-02-24T08:49:06.404Z,28.30
2019-02-24T08:51:33.631Z,29.23
2019-02-24T08:54:00.953Z,29.30
2019-02-24T08:56:28.301Z,29.47
2019-02-24T08:58:55.504Z,16.47
2019-02-24T09:01:22.849Z,27.67
2019-02-24T09:03:50.152Z,25.67
2019-02-24T09:06:17.499Z,25.90
2019-02-24T09:08:45.007Z,26.77
2019-02-24T09:11:12.305Z,26.27
2019-02-24T09:13:39.657Z,30.63
2019-02-24T09:16:07.002Z,27.90
2019-02-24T09:18:34.320Z,26.63
2019-02-24T09:21:01.657Z,25.70
2019-02-24T09:23:28.989Z,28.93
2019-02-24T09:25:56.382Z,26.50
2019-02-24T09:28:23.680Z,29.30
2019-02-24T09:31:00.218Z,27.77
2019-02-24T09:33:20.251Z,27.00
2019-02-24T09:35:47.462Z,28.10
2019-02-24T09:38:14.679Z,31.97
2019-02-24T09:40:42.024Z,27.70
2019-02-24T09:43:09.326Z,33.57
2019-02-24T09:45:36.655Z,28.50
2019-02-24T09:48:04.002Z,24.20
2019-02-24T09:50:31.311Z,28.90
2019-02-24T09:52:58.690Z,27.17
2019-02-24T09:55:25.992Z,25.63
2019-02-24T09:57:53.311Z,29.00
2019-02-24T10:00:22.029Z,29.00
2019-02-24T10:02:49.493Z,29.90
2019-02-24T10:05:16.840Z,30.33
2019-02-24T10:07:44.127Z,27.27
2019-02-24T10:10:11.493Z,25.30
2019-02-24T10:12:38.804Z,26.17
2019-02-24T10:15:06.567Z,21.87
2019-02-24T10:17:33.850Z,28.43
2019-02-24T10:20:01.174Z,27.27
2019-02-24T10:22:28.511Z,32.47
2019-02-24T10:24:55.850Z,28.33
2019-02-24T10:27:23.363Z,28.40
2019-02-24T10:29:50.591Z,30.00
2019-02-24T10:32:17.892Z,28.67
2019-02-24T10:34:45.250Z,25.43
2019-02-24T10:37:12.553Z,28.07
2019-02-24T10:39:39.863Z,33.50
2019-02-24T10:42:07.126Z,31.40
2019-02-24T10:44:34.445Z,29.63
2019-02-24T10:47:02.411Z,29.57
2019-02-24T10:49:29.818Z,31.60
2019-02-24T10:51:57.204Z,28.67
2019-02-24T10:54:24.399Z,28.93
2019-02-24T10:56:51.610Z,32.83
2019-02-24T10:59:18.940Z,18.30
2019-02-24T11:01:46.247Z,29.03
2019-02-24T11:04:13.587Z,28.60
2019-02-24T11:06:40.811Z,26.87
2019-02-24T11:09:08.247Z,30.37
2019-02-24T11:11:35.603Z,28.53
2019-02-24T11:14:02.849Z,29.93
2019-02-24T11:16:32.153Z,29.13
2019-02-24T11:18:59.383Z,26.50
2019-02-24T11:21:26.709Z,23.33
2019-02-24T11:23:54.011Z,29.07
2019-02-24T11:26:21.252Z,22.90
2019-02-24T11:28:48.348Z,22.43
2019-02-24T11:31:15.589Z,21.40
2019-02-24T11:33:42.916Z,16.17
2019-02-24T11:36:10.342Z,18.67
2019-02-24T11:38:37.559Z,26.97
2019-02-24T11:41:04.890Z,17.77
2019-02-24T11:43:32.235Z,26.53
2019-02-24T11:45:59.537Z,20.63
2019-02-24T11:48:27.072Z,21.13
2019-02-24T11:50:54.467Z,25.17
2019-02-24T11:53:21.789Z,22.10
2019-02-24T11:55:49.172Z,19.50
2019-02-24T11:58:16.383Z,24.93
2019-02-24T12:00:43.728Z,27.20
2019-02-24T12:03:11.056Z,23.23
2019-02-24T12:05:38.266Z,21.37
2019-02-24T12:08:05.573Z,16.40
2019-02-24T12:10:32.901Z,21.23
2019-02-24T12:13:00.396Z,21.40
2019-02-24T12:15:27.751Z,20.07
2019-02-24T12:17:55.079Z,22.33
2019-02-24T12:20:22.491Z,20.37
2019-02-24T12:22:49.835Z,17.83
2019-02-24T12:25:17.130Z,21.63
2019-02-24T12:27:44.455Z,23.80
2019-02-24T12:30:11.785Z,24.07
2019-02-24T12:32:39.118Z,25.10
2019-02-24T12:35:06.481Z,22.47
2019-02-24T12:37:33.780Z,23.13
2019-02-24T12:40:01.070Z,21.53
2019-02-24T12:42:28.314Z,21.50
2019-02-24T12:44:55.652Z,19.67
2019-02-24T12:47:22.894Z,19.60
2019-02-24T12:49:50.188Z,22.90
2019-02-24T12:52:17.483Z,17.33
2019-02-24T12:54:44.779Z,22.10
2019-02-24T12:57:11.923Z,20.43
2019-02-24T12:59:39.215Z,24.60
2019-02-24T13:02:06.548Z,23.83
2019-02-24T13:04:33.783Z,20.70
2019-02-24T13:07:01.062Z,24.80
2019-02-24T13:09:28.205Z,26.17
2019-02-24T13:11:55.531Z,21.27
2019-02-24T13:14:22.850Z,24.83
2019-02-24T13:16:50.132Z,16.67
2019-02-24T13:19:17.479Z,27.33
2019-02-24T13:21:46.427Z,27.70
2019-02-24T13:24:13.788Z,30.60
2019-02-24T13:26:41.091Z,32.17
2019-02-24T13:29:08.359Z,32.10
2019-02-24T13:31:35.682Z,26.83
2019-02-24T13:34:02.914Z,35.23
2019-02-24T13:36:30.240Z,38.43
2019-02-24T13:38:58.321Z,31.70
2019-02-24T13:41:25.686Z,41.73
2019-02-24T13:43:52.911Z,40.23
2019-02-24T13:46:20.227Z,40.97
2019-02-24T13:48:47.568Z,34.97
2019-02-24T13:51:14.818Z,41.60
2019-02-24T13:53:42.102Z,44.53
2019-02-24T13:56:09.343Z,44.73
2019-02-24T13:58:36.637Z,43.17
2019-02-24T14:01:04.012Z,49.77
2019-02-24T14:03:31.314Z,50.83
2019-02-24T14:05:58.643Z,55.67
2019-02-24T14:08:27.694Z,48.33
2019-02-24T14:10:55.125Z,38.70
2019-02-24T14:13:22.464Z,48.13
2019-02-24T14:15:49.759Z,35.77
2019-02-24T14:18:17.105Z,45.33
2019-02-24T14:20:44.408Z,52.83
2019-02-24T14:23:11.611Z,53.60
2019-02-24T14:25:38.854Z,50.63
2019-02-24T14:28:06.056Z,49.23
2019-02-24T14:30:33.309Z,39.50
2019-02-24T14:33:00.616Z,36.87
2019-02-24T14:35:27.919Z,55.17
2019-02-24T14:37:55.136Z,50.67
2019-02-24T14:40:22.364Z,37.80
2019-02-24T14:42:49.492Z,48.27
2019-02-24T14:45:16.839Z,53.13
2019-02-24T14:47:44.217Z,49.27
2019-02-24T14:50:11.507Z,51.73
2019-02-24T14:52:38.821Z,50.70
2019-02-24T14:55:06.770Z,52.00
2019-02-24T14:57:33.985Z,54.77
2019-02-24T15:00:01.323Z,47.27
2019-02-24T15:02:28.546Z,47.73
2019-02-24T15:04:55.993Z,52.03
2019-02-24T15:07:23.194Z,33.50
2019-02-24T15:09:50.589Z,51.17
2019-02-24T15:12:17.908Z,55.73
2019-02-24T15:14:45.340Z,47.23
2019-02-24T15:17:12.660Z,41.93
2019-02-24T15:19:40.152Z,49.40
2019-02-24T15:22:07.475Z,38.93
2019-02-24T15:24:34.963Z,37.00
2019-02-24T15:27:02.280Z,46.33
2019-02-24T15:29:29.610Z,43.17
2019-02-24T15:31:56.964Z,31.37
2019-02-24T15:34:24.295Z,43.67
2019-02-24T15:36:51.603Z,38.17
2019-02-24T15:39:18.968Z,31.13
2019-02-24T15:41:46.302Z,47.60
2019-02-24T15:44:13.677Z,35.83
2019-02-24T15:46:41.120Z,37.07
2019-02-24T15:49:08.700Z,35.50
2019-02-24T15:51:36.099Z,46.83
2019-02-24T15:54:03.388Z,49.00
2019-02-24T15:56:30.821Z,43.37
2019-02-24T15:58:58.121Z,30.27
2019-02-24T16:01:25.533Z,54.23
2019-02-24T16:03:52.997Z,46.17
2019-02-24T16:06:20.323Z,42.50
2019-02-24T16:08:47.658Z,49.00
2019-02-24T16:11:15.007Z,36.97
2019-02-24T16:13:42.304Z,58.10
2019-02-24T16:16:09.540Z,43.17
2019-02-24T16:18:36.865Z,51.03
2019-02-24T16:21:04.068Z,34.47
2019-02-24T16:23:31.320Z,47.83
2019-02-24T16:25:58.524Z,42.20
2019-02-24T16:28:25.842Z,35.73
2019-02-24T16:30:53.065Z,46.43
2019-02-24T16:33:20.396Z,36.30
2019-02-24T16:35:47.598Z,44.00
2019-02-24T16:38:14.907Z,31.83
2019-02-24T16:40:42.126Z,38.03
2019-02-24T16:43:09.379Z,49.50
2019-02-24T16:45:36.710Z,43.23
2019-02-24T16:48:04.006Z,35.90
2019-02-24T16:50:31.367Z,40.07
2019-02-24T16:52:58.695Z,46.40
2019-02-24T16:55:25.952Z,34.87
2019-02-24T16:57:53.244Z,48.80
2019-02-24T17:00:20.597Z,36.13
2019-02-24T17:02:48.032Z,48.33
2019-02-24T17:05:15.349Z,33.73
2019-02-24T17:07:42.679Z,41.73
2019-02-24T17:10:11.208Z,26.80
2019-02-24T17:12:38.552Z,29.73
2019-02-24T17:15:06.684Z,31.23
2019-02-24T17:17:34.018Z,43.17
2019-02-24T17:20:01.344Z,49.77
2019-02-24T17:22:28.655Z,50.60
2019-02-24T17:24:55.927Z,40.07
2019-02-24T17:27:23.289Z,42.87
2019-02-24T17:29:50.602Z,27.10
2019-02-24T17:32:17.843Z,37.97
2019-02-24T17:34:45.128Z,35.07
2019-02-24T17:37:19.838Z,35.50
2019-02-24T17:39:41.588Z,37.20
2019-02-24T17:42:08.919Z,39.73
2019-02-24T17:44:36.176Z,40.97
2019-02-24T17:47:03.480Z,41.30
2019-02-24T17:49:30.805Z,40.90
2019-02-24T17:51:58.166Z,23.57
2019-02-24T17:54:25.503Z,39.07
2019-02-24T17:56:52.807Z,41.00
2019-02-24T17:59:20.137Z,39.27
2019-02-24T18:01:47.476Z,37.83
2019-02-24T18:04:14.931Z,39.13
2019-02-24T18:06:42.138Z,30.13
2019-02-24T18:09:09.451Z,35.80
2019-02-24T18:11:36.699Z,36.57
2019-02-24T18:14:03.999Z,32.70
2019-02-24T18:16:31.204Z,40.73
2019-02-24T18:18:58.425Z,34.40
2019-02-24T18:21:25.655Z,20.30
2019-02-24T18:23:52.988Z,33.73
2019-02-24T18:26:20.295Z,39.53
2019-02-24T18:28:47.411Z,33.30
2019-02-24T18:31:14.619Z,37.70
2019-02-24T18:33:48.155Z,36.73
2019-02-24T18:36:11.218Z,35.17
2019-02-24T18:38:38.459Z,39.33
2019-02-24T18:41:05.708Z,35.43
2019-02-24T18:43:33.013Z,35.57
2019-02-24T18:46:00.239Z,32.47
2019-02-24T18:48:27.557Z,34.47
2019-02-24T18:50:54.900Z,31.33
2019-02-24T18:53:22.363Z,33.70
2019-02-24T18:55:49.711Z,32.50
2019-02-24T18:58:17.020Z,31.77
2019-02-24T19:00:44.360Z,28.93
2019-02-24T19:03:11.678Z,31.10
2019-02-24T19:05:39.024Z,32.70
2019-02-24T19:08:06.232Z,28.83
2019-02-24T19:10:33.484Z,30.53
2019-02-24T19:13:00.777Z,28.57
2019-02-24T19:15:28.211Z,27.23
2019-02-24T19:17:55.513Z,24.60
2019-02-24T19:20:22.883Z,35.00
2019-02-24T19:22:50.205Z,26.20
2019-02-24T19:25:17.599Z,25.73
2019-02-24T19:27:44.852Z,21.03
2019-02-24T19:30:13.036Z,21.13
2019-02-24T19:32:40.350Z,27.17
2019-02-24T19:35:08.209Z,25.83
2019-02-24T19:37:35.420Z,25.47
2019-02-24T19:40:03.257Z,29.53
2019-02-24T19:42:30.608Z,24.40
2019-02-24T19:44:57.813Z,24.30
2019-02-24T19:47:25.028Z,26.23
2019-02-24T19:49:52.400Z,22.07
2019-02-24T19:52:19.731Z,25.60
2019-02-24T19:54:46.719Z,26.67
2019-02-24T19:57:13.993Z,21.67
2019-02-24T19:59:41.291Z,26.67
2019-02-24T20:02:08.524Z,25.67
2019-02-24T20:04:35.729Z,29.37
2019-02-24T20:07:03.072Z,24.47
2019-02-24T20:09:30.384Z,22.57
2019-02-24T20:11:57.732Z,21.77
2019-02-24T20:14:25.064Z,25.93
2019-02-24T20:16:52.361Z,23.03
2019-02-24T20:19:19.617Z,25.30
2019-02-24T20:21:46.919Z,25.90
2019-02-24T20:24:14.172Z,25.03
2019-02-24T20:26:41.450Z,22.90
2019-02-24T20:29:08.695Z,23.93
2019-02-24T20:31:35.902Z,25.00
2019-02-24T20:34:03.253Z,26.40
2019-02-24T20:36:30.485Z,21.47
2019-02-24T20:38:57.780Z,26.30
2019-02-24T20:41:25.021Z,23.00
2019-02-24T20:43:54.577Z,22.30
2019-02-24T20:46:21.925Z,21.80
2019-02-24T20:48:49.257Z,21.43
2019-02-24T20:51:16.489Z,26.90
2019-02-24T20:53:43.727Z,22.83
2019-02-24T20:56:10.947Z,24.10
2019-02-24T20:58:38.209Z,23.07
2019-02-24T21:01:10.025Z,21.20
2019-02-24T21:03:37.646Z,21.10
2019-02-24T21:06:04.992Z,21.73
2019-02-24T21:08:32.275Z,13.20
2019-02-24T21:10:59.607Z,26.37
2019-02-24T21:13:26.815Z,23.17
2019-02-24T21:15:54.064Z,23.73
2019-02-24T21:18:21.380Z,24.50
2019-02-24T21:20:48.716Z,25.67
2019-02-24T21:23:15.910Z,27.20
2019-02-24T21:25:43.243Z,23.40
2019-02-24T21:28:10.488Z,21.37
2019-02-24T21:30:37.785Z,22.77
2019-02-24T21:33:05.130Z,25.27
2019-02-24T21:35:32.419Z,23.00
2019-02-24T21:37:59.516Z,19.90
2019-02-24T21:40:26.856Z,20.13
2019-02-24T21:42:54.144Z,19.97
2019-02-24T21:45:21.502Z,21.90
2019-02-24T21:47:48.812Z,23.23
2019-02-24T21:50:16.163Z,20.17
2019-02-24T21:52:43.398Z,18.37
2019-02-24T21:55:11.063Z,17.93
2019-02-24T21:57:38.356Z,19.17
2019-02-24T22:00:09.015Z,15.93
2019-02-24T22:02:36.216Z,17.77
2019-02-24T22:05:03.991Z,19.33
2019-02-24T22:07:31.687Z,20.77
2019-02-24T22:09:58.980Z,22.50
2019-02-24T22:12:26.076Z,18.20
2019-02-24T22:14:53.443Z,23.20
2019-02-24T22:17:20.744Z,19.93
2019-02-24T22:19:48.108Z,19.30
2019-02-24T22:22:15.313Z,18.90
2019-02-24T22:24:42.552Z,20.13
2019-02-24T22:27:09.857Z,22.60
2019-02-24T22:29:37.075Z,13.87
2019-02-24T22:32:04.394Z,16.03
2019-02-24T22:34:31.606Z,20.93
2019-02-24T22:36:58.935Z,10.13
2019-02-24T22:39:26.167Z,20.77
2019-02-24T22:41:53.600Z,20.53
2019-02-24T22:44:20.870Z,20.93
2019-02-24T22:46:48.177Z,18.60
2019-02-24T22:49:15.552Z,16.67
2019-02-24T22:51:42.878Z,21.20
2019-02-24T22:54:10.176Z,20.13
2019-02-24T22:56:37.515Z,21.47
2019-02-24T22:59:04.904Z,19.67
2019-02-24T23:01:35.019Z,21.13
2019-02-24T23:04:06.965Z,20.37
2019-02-24T23:06:34.291Z,19.53
2019-02-24T23:09:04.448Z,17.53
2019-02-24T23:11:31.779Z,15.37
2019-02-24T23:13:59.078Z,17.63
2019-02-24T23:16:26.324Z,15.47
2019-02-24T23:18:53.448Z,13.33
2019-02-24T23:21:20.767Z,14.03
2019-02-24T23:23:47.999Z,14.50
2019-02-24T23:26:15.280Z,8.20
2019-02-24T23:28:42.476Z,8.13
2019-02-24T23:31:09.620Z,10.33
2019-02-24T23:33:37.056Z,16.50
2019-02-24T23:36:04.468Z,13.27
2019-02-24T23:38:31.785Z,13.37
2019-02-24T23:40:59.020Z,12.53
2019-02-24T23:43:26.232Z,11.93
2019-02-24T23:45:53.567Z,11.93
2019-02-24T23:48:20.770Z,14.43
2019-02-24T23:50:48.100Z,13.40
2019-02-24T23:53:15.291Z,11.80
2019-02-24T23:55:42.523Z,11.23
2019-02-24T23:58:09.758Z,14.50
